HDAM/JIB METAR and TAF weather

Enter ICAO airport designator
Station Type Date Time Source
HDAM METAR 2021/05/14 15:00 UTC NOAA

HDAM 141500Z 10008KT CAVOK 36/24 Q1002


Station Type Date Time Source
HDAM Decoded METAR 2021/05/14 15:00 UTC NOAA

Djibouti \ Ambouli, Djibouti (HDAM) 11-33N 043-10E
May 14, 2021 - 11:00 AM EDT / 2021.05.14 1500 UTC
Wind: from the E (100 degrees) at 9 MPH (8 KT):0
Visibility: greater than 7 mile(s):0
Temperature: 96 F (36 C)
Heat index: 107.6 F (42.0 C):1
Dew Point: 75 F (24 C)
Relative Humidity: 50%
Pressure (altimeter): 29.59 in. Hg (1002 hPa)
ob: HDAM 141500Z 10008KT CAVOK 36/24 Q1002
cycle: 15

Station Type Date Time Source
HDAM TAF 2021/05/13 18:21 UTC NOAA

TAF HDAM 131700Z 1318/1418 VRB05KT 9999 FEW020
BECMG 1400/1406 00000KT SCT020 SCT133
BECMG 1406/1412 32010KT FEW023

Example: see airport list